createdAt,value
2018-08-18T00:00:20.757Z,16.60
2018-08-18T00:02:49.434Z,16.60
2018-08-18T00:05:18.517Z,16.50
2018-08-18T00:07:47.258Z,16.60
2018-08-18T00:10:18.653Z,16.50
2018-08-18T00:12:47.864Z,16.60
2018-08-18T00:15:16.308Z,16.70
2018-08-18T00:17:44.868Z,16.70
2018-08-18T00:20:18.564Z,16.80
2018-08-18T00:22:47.292Z,16.80
2018-08-18T00:25:15.845Z,16.80
2018-08-18T00:27:44.354Z,16.90
2018-08-18T00:30:18.311Z,16.90
2018-08-18T00:32:46.753Z,16.80
2018-08-18T00:35:15.270Z,16.80
2018-08-18T00:37:43.762Z,16.80
2018-08-18T00:40:12.719Z,16.90
2018-08-18T00:42:41.564Z,16.90
2018-08-18T00:45:12.262Z,16.90
2018-08-18T00:47:41.933Z,16.80
2018-08-18T00:50:11.272Z,16.80
2018-08-18T00:52:39.727Z,16.70
2018-08-18T00:55:08.235Z,16.90
2018-08-18T00:57:36.680Z,16.80
2018-08-18T01:00:06.601Z,16.80
2018-08-18T01:02:35.477Z,16.80
2018-08-18T01:05:04.980Z,16.70
2018-08-18T01:07:33.450Z,16.70
2018-08-18T01:10:02.766Z,16.70
2018-08-18T01:12:31.566Z,16.70
2018-08-18T01:14:59.994Z,16.70
2018-08-18T01:17:28.363Z,16.60
2018-08-18T01:19:58.168Z,16.70
2018-08-18T01:22:26.631Z,16.80
2018-08-18T01:24:55.048Z,16.80
2018-08-18T01:27:23.668Z,16.80
2018-08-18T01:30:06.889Z,16.80
2018-08-18T01:32:35.301Z,16.80
2018-08-18T01:35:04.008Z,16.80
2018-08-18T01:37:33.169Z,16.80
2018-08-18T01:40:01.835Z,16.90
2018-08-18T01:42:32.385Z,16.90
2018-08-18T01:45:00.874Z,16.90
2018-08-18T01:47:29.628Z,16.90
2018-08-18T01:50:04.101Z,16.80
2018-08-18T01:52:33.407Z,16.80
2018-08-18T01:55:01.842Z,16.70
2018-08-18T01:57:30.328Z,16.70
2018-08-18T01:59:59.243Z,16.70
2018-08-18T02:02:28.700Z,16.70
2018-08-18T02:05:05.790Z,16.70
2018-08-18T02:07:34.520Z,16.60
2018-08-18T02:10:03.181Z,16.50
2018-08-18T02:12:31.638Z,16.50
2018-08-18T02:15:01.066Z,16.60
2018-08-18T02:17:31.473Z,16.60
2018-08-18T02:20:00.309Z,16.70
2018-08-18T02:22:29.514Z,16.70
2018-08-18T02:24:57.988Z,16.80
2018-08-18T02:27:27.276Z,16.80
2018-08-18T02:30:07.957Z,16.80
2018-08-18T02:32:38.032Z,16.70
2018-08-18T02:35:07.384Z,16.70
2018-08-18T02:37:35.942Z,16.70
2018-08-18T02:40:08.856Z,16.70
2018-08-18T02:42:37.225Z,16.80
2018-08-18T02:45:06.986Z,16.70
2018-08-18T02:47:35.524Z,16.70
2018-08-18T02:50:04.717Z,16.70
2018-08-18T02:52:34.876Z,16.60
2018-08-18T02:55:04.654Z,16.60
2018-08-18T02:57:35.283Z,16.60
2018-08-18T03:00:06.129Z,16.60
2018-08-18T03:02:34.672Z,16.60
2018-08-18T03:05:03.186Z,16.60
2018-08-18T03:07:34.869Z,16.60
2018-08-18T03:10:11.217Z,16.60
2018-08-18T03:12:45.603Z,16.50
2018-08-18T03:15:58.908Z,16.50
2018-08-18T03:18:44.852Z,16.50
2018-08-18T03:21:13.454Z,16.50
2018-08-18T03:23:53.127Z,16.50
2018-08-18T03:26:26.141Z,16.40
2018-08-18T03:28:54.812Z,16.40
2018-08-18T03:31:23.245Z,16.50
2018-08-18T03:33:51.733Z,16.40
2018-08-18T03:36:27.572Z,16.40
2018-08-18T03:38:56.752Z,16.50
2018-08-18T03:41:26.295Z,16.50
2018-08-18T03:43:55.576Z,16.40
2018-08-18T03:46:24.025Z,16.40
2018-08-18T03:48:52.993Z,16.40
2018-08-18T03:51:28.671Z,16.40
2018-08-18T03:53:57.367Z,16.40
2018-08-18T03:56:25.952Z,16.30
2018-08-18T03:58:56.604Z,16.30
2018-08-18T04:02:01.590Z,16.30
2018-08-18T04:04:33.208Z,16.30
2018-08-18T04:07:02.639Z,16.30
2018-08-18T04:09:34.280Z,16.20
2018-08-18T04:12:04.873Z,16.20
2018-08-18T04:14:38.301Z,16.20
2018-08-18T04:17:38.393Z,16.20
2018-08-18T04:20:07.286Z,16.20
2018-08-18T04:22:35.733Z,16.20
2018-08-18T04:25:05.485Z,16.20
2018-08-18T04:27:43.219Z,16.20
2018-08-18T04:30:14.863Z,16.20
2018-08-18T04:32:50.564Z,16.20
2018-08-18T04:35:21.089Z,16.20
2018-08-18T04:37:50.113Z,16.20
2018-08-18T04:40:19.009Z,16.20
2018-08-18T04:42:47.724Z,16.20
2018-08-18T04:45:17.912Z,16.20
2018-08-18T04:47:47.355Z,16.20
2018-08-18T04:50:15.815Z,16.20
2018-08-18T04:52:44.453Z,16.20
2018-08-18T04:55:14.393Z,16.20
2018-08-18T04:57:42.974Z,16.20
2018-08-18T05:00:12.993Z,16.20
2018-08-18T05:02:46.665Z,16.20
2018-08-18T05:05:15.980Z,16.20
2018-08-18T05:07:48.608Z,16.20
2018-08-18T05:10:19.221Z,16.30
2018-08-18T05:12:48.049Z,16.30
2018-08-18T05:15:17.632Z,16.30
2018-08-18T05:17:48.157Z,16.40
2018-08-18T05:20:19.855Z,16.40
2018-08-18T05:22:48.311Z,16.40
2018-08-18T05:25:17.810Z,16.40
2018-08-18T05:27:46.274Z,16.50
2018-08-18T05:30:14.724Z,16.50
2018-08-18T05:32:43.201Z,16.50
2018-08-18T05:35:11.771Z,16.50
2018-08-18T05:37:40.245Z,16.50
2018-08-18T05:40:08.764Z,16.50
2018-08-18T05:42:37.300Z,16.50
2018-08-18T05:45:20.977Z,16.50
2018-08-18T05:47:50.120Z,16.50
2018-08-18T05:50:18.559Z,16.60
2018-08-18T05:52:47.076Z,16.60
2018-08-18T05:55:15.645Z,16.60
2018-08-18T05:57:44.131Z,16.60
2018-08-18T06:00:20.492Z,16.60
2018-08-18T06:02:54.427Z,16.70
2018-08-18T06:05:23.054Z,16.70
2018-08-18T06:07:51.730Z,16.80
2018-08-18T06:10:20.285Z,16.80
2018-08-18T06:12:48.701Z,16.80
2018-08-18T06:15:17.275Z,16.80
2018-08-18T06:17:45.715Z,16.80
2018-08-18T06:20:14.242Z,16.80
2018-08-18T06:22:42.774Z,16.80
2018-08-18T06:25:11.457Z,16.80
2018-08-18T06:27:41.144Z,16.80
2018-08-18T06:30:09.940Z,16.80
2018-08-18T06:32:38.676Z,16.80
2018-08-18T06:35:07.964Z,16.80
2018-08-18T06:37:36.346Z,16.90
2018-08-18T06:40:05.118Z,16.90
2018-08-18T06:42:40.014Z,16.90
2018-08-18T06:45:13.666Z,16.90
2018-08-18T06:47:42.754Z,16.80
2018-08-18T06:50:13.321Z,16.80
2018-08-18T06:52:42.109Z,16.90
2018-08-18T06:55:18.407Z,16.80
2018-08-18T06:57:52.285Z,16.80
2018-08-18T07:00:22.293Z,16.90
2018-08-18T07:02:51.589Z,16.90
2018-08-18T07:05:20.680Z,17.00
2018-08-18T07:07:50.013Z,17.00
2018-08-18T07:10:27.565Z,17.00
2018-08-18T07:13:02.515Z,17.10
2018-08-18T07:15:32.718Z,17.10
2018-08-18T07:18:01.701Z,17.20
2018-08-18T07:20:30.262Z,17.20
2018-08-18T07:22:58.817Z,17.20
2018-08-18T07:25:27.667Z,17.30
2018-08-18T07:28:01.571Z,17.30
2018-08-18T07:30:31.321Z,17.40
2018-08-18T07:46:06.955Z,17.40
2018-08-18T07:48:35.557Z,17.50
2018-08-18T07:51:04.005Z,17.70
2018-08-18T07:53:32.547Z,17.80
2018-08-18T07:56:00.924Z,17.80
2018-08-18T07:58:29.414Z,17.80
2018-08-18T08:00:59.237Z,17.80
2018-08-18T08:03:27.753Z,17.90
2018-08-18T08:05:56.289Z,18.00
2018-08-18T08:08:25.015Z,18.00
2018-08-18T08:10:58.629Z,18.00
2018-08-18T08:13:27.168Z,18.10
2018-08-18T08:15:55.641Z,18.20
2018-08-18T08:18:25.416Z,18.20
2018-08-18T08:20:53.982Z,18.20
2018-08-18T08:23:22.512Z,18.20
2018-08-18T08:25:51.021Z,18.30
2018-08-18T08:28:19.543Z,18.40
2018-08-18T08:30:47.969Z,18.50
2018-08-18T08:33:30.564Z,18.60
2018-08-18T08:35:59.108Z,18.70
2018-08-18T08:38:32.746Z,18.70
2018-08-18T08:41:01.253Z,18.70
2018-08-18T08:43:35.298Z,18.80
2018-08-18T08:46:03.937Z,19.00
2018-08-18T08:48:32.520Z,19.10
2018-08-18T08:51:01.017Z,19.10
2018-08-18T08:53:29.671Z,19.30
2018-08-18T08:55:58.136Z,19.30
2018-08-18T08:58:26.594Z,19.40
2018-08-18T09:00:55.067Z,19.60
2018-08-18T09:03:23.568Z,19.80
2018-08-18T09:05:52.237Z,20.00
2018-08-18T09:08:20.719Z,20.10
2018-08-18T09:10:49.229Z,20.00
2018-08-18T09:13:17.764Z,20.10
2018-08-18T09:15:46.220Z,20.30
2018-08-18T09:18:14.720Z,20.50
2018-08-18T09:20:47.056Z,20.60
2018-08-18T09:23:15.670Z,20.60
2018-08-18T09:25:44.176Z,20.60
2018-08-18T09:28:13.523Z,20.70
2018-08-18T09:30:42.019Z,20.90
2018-08-18T09:33:10.884Z,21.00
2018-08-18T09:36:04.549Z,21.10
2018-08-18T09:38:33.549Z,21.20
2018-08-18T09:41:02.136Z,21.40
2018-08-18T09:43:30.789Z,21.50
2018-08-18T09:45:59.199Z,21.40
2018-08-18T09:48:27.753Z,21.50
2018-08-18T09:50:57.556Z,21.40
2018-08-18T09:53:26.104Z,21.40
2018-08-18T09:55:54.582Z,21.40
2018-08-18T09:58:23.197Z,21.30
2018-08-18T10:00:51.747Z,21.30
2018-08-18T10:03:20.279Z,21.30
2018-08-18T10:05:48.933Z,21.40
2018-08-18T10:08:17.449Z,21.60
2018-08-18T10:10:46.066Z,21.70
2018-08-18T10:13:14.513Z,21.70
2018-08-18T10:15:42.996Z,22.00
2018-08-18T10:18:11.587Z,22.10
2018-08-18T10:20:45.331Z,22.10
2018-08-18T10:23:13.817Z,22.30
2018-08-18T10:25:42.303Z,22.20
2018-08-18T10:28:10.809Z,22.40
2018-08-18T10:30:39.268Z,22.50
2018-08-18T10:33:08.696Z,22.70
2018-08-18T10:35:37.257Z,22.90
2018-08-18T10:38:06.612Z,23.10
2018-08-18T10:40:35.180Z,23.10
2018-08-18T10:43:03.660Z,23.20
2018-08-18T10:45:32.260Z,23.30
2018-08-18T10:48:00.749Z,23.50
2018-08-18T10:50:40.545Z,23.30
2018-08-18T10:53:08.968Z,23.50
2018-08-18T10:55:38.385Z,23.60
2018-08-18T10:58:09.150Z,23.60
2018-08-18T11:00:38.254Z,23.50
2018-08-18T11:03:08.396Z,23.60
2018-08-18T11:05:36.963Z,23.40
2018-08-18T11:08:08.385Z,23.60
2018-08-18T11:10:38.428Z,23.60
2018-08-18T11:13:06.992Z,23.70
2018-08-18T11:15:35.548Z,23.60
2018-08-18T11:18:04.120Z,23.80
2018-08-18T11:20:34.084Z,23.80
2018-08-18T11:23:12.918Z,24.30
2018-08-18T11:25:47.857Z,24.50
2018-08-18T11:28:17.112Z,24.80
2018-08-18T11:30:45.676Z,25.10
2018-08-18T11:33:26.814Z,25.30
2018-08-18T11:35:55.333Z,25.50
2018-08-18T11:38:23.998Z,25.80
2018-08-18T11:40:52.485Z,25.90
2018-08-18T11:43:20.939Z,25.70
2018-08-18T11:45:49.461Z,25.70
2018-08-18T11:48:22.952Z,25.30
2018-08-18T11:50:52.911Z,25.50
2018-08-18T11:53:21.432Z,25.80
2018-08-18T11:55:49.916Z,26.40
2018-08-18T11:58:19.932Z,26.90
2018-08-18T12:00:53.266Z,27.30
2018-08-18T12:03:24.226Z,27.50
2018-08-18T12:05:57.884Z,27.50
2018-08-18T12:08:28.165Z,27.60
2018-08-18T12:11:00.301Z,27.50
2018-08-18T12:13:33.928Z,27.60
2018-08-18T12:16:06.757Z,27.30
2018-08-18T12:18:36.214Z,27.60
2018-08-18T12:21:05.297Z,28.00
2018-08-18T12:23:35.810Z,27.80
2018-08-18T12:26:08.224Z,27.80
2018-08-18T12:28:42.579Z,27.60
2018-08-18T12:31:13.264Z,27.90
2018-08-18T12:33:42.073Z,28.10
2018-08-18T12:36:10.607Z,27.70
2018-08-18T12:38:44.474Z,28.20
2018-08-18T12:41:13.020Z,28.50
2018-08-18T12:43:43.175Z,28.50
2018-08-18T12:46:13.588Z,28.50
2018-08-18T12:48:43.173Z,28.50
2018-08-18T12:51:12.804Z,28.50
2018-08-18T12:53:48.253Z,28.80
2018-08-18T12:56:22.064Z,28.70
2018-08-18T12:58:50.825Z,28.90
2018-08-18T13:01:36.754Z,29.00
2018-08-18T13:04:07.601Z,28.20
2018-08-18T13:06:45.706Z,27.90
2018-08-18T13:09:15.656Z,28.40
2018-08-18T13:11:45.622Z,28.60
2018-08-18T13:14:17.555Z,28.20
2018-08-18T13:16:46.072Z,27.80
2018-08-18T13:19:15.864Z,27.50
2018-08-18T13:21:44.313Z,27.30
2018-08-18T13:24:12.939Z,26.90
2018-08-18T13:26:41.489Z,27.10
2018-08-18T13:29:09.960Z,27.20
2018-08-18T13:31:42.513Z,27.50
2018-08-18T13:34:12.644Z,27.70
2018-08-18T13:36:42.656Z,27.70
2018-08-18T13:39:13.497Z,27.40
2018-08-18T13:41:42.772Z,27.60
2018-08-18T13:44:11.272Z,27.80
2018-08-18T13:46:45.124Z,28.00
2018-08-18T13:49:13.563Z,28.30
2018-08-18T13:51:42.080Z,28.40
2018-08-18T13:54:11.153Z,28.10
2018-08-18T13:56:40.785Z,27.90
2018-08-18T13:59:09.788Z,28.40
2018-08-18T14:02:13.476Z,28.40
2018-08-18T14:04:43.653Z,28.60
2018-08-18T14:07:12.687Z,28.70
2018-08-18T14:09:43.611Z,28.90
2018-08-18T14:12:15.672Z,29.10
2018-08-18T14:14:45.416Z,29.40
2018-08-18T14:17:15.212Z,28.60
2018-08-18T14:19:43.836Z,28.70
2018-08-18T14:22:12.693Z,28.00
2018-08-18T14:24:41.619Z,28.00
2018-08-18T14:27:14.860Z,27.90
2018-08-18T14:29:43.937Z,28.10
2018-08-18T14:32:17.725Z,28.10
2018-08-18T14:35:07.117Z,28.00
2018-08-18T14:37:39.723Z,27.40
2018-08-18T14:40:10.696Z,27.30
2018-08-18T14:42:39.475Z,27.30
2018-08-18T14:45:11.150Z,27.30
2018-08-18T14:47:41.232Z,27.30
2018-08-18T14:50:21.377Z,27.50
2018-08-18T14:52:49.936Z,27.70
2018-08-18T14:58:31.935Z,28.00
2018-08-18T15:01:05.815Z,27.90
2018-08-18T15:03:34.409Z,27.60
2018-08-18T15:06:03.056Z,27.40
2018-08-18T15:08:31.565Z,27.30
2018-08-18T15:11:00.030Z,27.10
2018-08-18T15:13:28.502Z,26.60
2018-08-18T15:15:56.980Z,26.30
2018-08-18T15:18:25.417Z,26.30
2018-08-18T15:20:53.881Z,26.40
2018-08-18T15:23:22.386Z,26.40
2018-08-18T15:25:50.835Z,26.30
2018-08-18T15:28:20.496Z,26.30
2018-08-18T15:30:52.476Z,26.20
2018-08-18T15:33:23.575Z,26.20
2018-08-18T15:35:52.184Z,26.20
2018-08-18T15:38:55.984Z,26.10
2018-08-18T15:41:25.292Z,26.30
2018-08-18T15:43:54.269Z,26.40
2018-08-18T15:46:23.275Z,26.50
2018-08-18T15:48:51.787Z,26.50
2018-08-18T15:51:20.309Z,26.40
2018-08-18T15:53:53.352Z,26.40
2018-08-18T15:56:23.156Z,26.40
2018-08-18T15:58:52.442Z,26.50
2018-08-18T16:01:23.189Z,26.50
2018-08-18T16:03:52.234Z,26.60
2018-08-18T16:06:20.760Z,26.70
2018-08-18T16:08:49.946Z,26.60
2018-08-18T16:11:18.440Z,26.50
2018-08-18T16:13:47.048Z,26.50
2018-08-18T16:16:16.408Z,26.40
2018-08-18T16:18:45.410Z,26.30
2018-08-18T16:21:19.245Z,26.30
2018-08-18T16:23:47.704Z,26.30
2018-08-18T16:26:16.305Z,26.20
2018-08-18T16:28:44.864Z,26.20
2018-08-18T16:31:13.669Z,26.20
2018-08-18T16:33:42.821Z,26.10
2018-08-18T16:36:11.850Z,26.10
2018-08-18T16:38:40.306Z,26.10
2018-08-18T16:41:08.851Z,26.20
2018-08-18T16:43:38.400Z,26.30
2018-08-18T16:46:21.147Z,26.20
2018-08-18T16:48:50.471Z,26.20
2018-08-18T16:51:19.144Z,26.20
2018-08-18T16:53:48.318Z,26.20
2018-08-18T16:56:25.510Z,26.20
2018-08-18T16:58:56.166Z,26.10
2018-08-18T17:01:25.095Z,26.20
2018-08-18T17:03:54.460Z,26.20
2018-08-18T17:06:22.933Z,26.10
2018-08-18T17:08:51.437Z,26.10
2018-08-18T17:11:20.289Z,26.00
2018-08-18T17:13:48.856Z,25.90
2018-08-18T17:16:17.376Z,25.90
2018-08-18T17:18:45.964Z,25.90
2018-08-18T17:21:15.082Z,25.80
2018-08-18T17:23:44.326Z,25.80
2018-08-18T17:26:12.980Z,25.50
2018-08-18T17:28:41.428Z,25.40
2018-08-18T17:31:09.963Z,25.30
2018-08-18T17:33:38.453Z,25.30
2018-08-18T17:36:07.033Z,25.00
2018-08-18T17:38:35.508Z,24.90
2018-08-18T17:41:04.006Z,24.80
2018-08-18T17:43:32.517Z,24.70
2018-08-18T17:46:05.024Z,24.60
2018-08-18T17:48:41.087Z,24.50
2018-08-18T17:51:10.440Z,24.40
2018-08-18T17:53:43.245Z,24.30
2018-08-18T17:56:12.374Z,24.20
2018-08-18T17:58:40.837Z,24.00
2018-08-18T18:01:09.365Z,23.80
2018-08-18T18:03:37.936Z,23.70
2018-08-18T18:06:06.573Z,23.60
2018-08-18T18:08:35.173Z,23.50
2018-08-18T18:11:05.012Z,23.40
2018-08-18T18:13:35.433Z,23.30
2018-08-18T18:16:11.040Z,23.10
2018-08-18T18:18:44.745Z,23.10
2018-08-18T18:21:13.306Z,22.90
2018-08-18T18:23:42.931Z,22.80
2018-08-18T18:26:11.412Z,22.70
2018-08-18T18:28:39.888Z,22.50
2018-08-18T18:31:08.832Z,22.30
2018-08-18T18:33:37.433Z,22.10
2018-08-18T18:36:06.203Z,21.90
2018-08-18T18:38:49.040Z,21.90
2018-08-18T18:41:17.552Z,21.70
2018-08-18T18:43:55.563Z,21.60
2018-08-18T18:46:24.041Z,21.40
2018-08-18T18:48:52.532Z,21.30
2018-08-18T18:51:21.149Z,21.20
2018-08-18T18:53:51.421Z,21.10
2018-08-18T18:56:20.275Z,21.00
2018-08-18T18:58:48.804Z,20.80
2018-08-18T19:01:19.195Z,20.70
2018-08-18T19:03:47.753Z,20.70
2018-08-18T19:06:16.259Z,20.60
2018-08-18T19:08:59.132Z,20.50
2018-08-18T19:11:28.220Z,20.40
2018-08-18T19:13:57.008Z,20.40
2018-08-18T19:16:25.566Z,20.20
2018-08-18T19:18:54.193Z,20.20
2018-08-18T19:21:23.012Z,20.10
2018-08-18T19:23:51.469Z,20.00
2018-08-18T19:26:19.925Z,19.90
2018-08-18T19:28:48.591Z,19.80
2018-08-18T19:31:17.348Z,19.80
2018-08-18T19:33:45.961Z,19.70
2018-08-18T19:36:14.441Z,19.70
2018-08-18T19:38:43.169Z,19.60
2018-08-18T19:41:11.631Z,19.50
2018-08-18T19:43:41.052Z,19.40
2018-08-18T19:46:09.573Z,19.40
2018-08-18T19:48:38.184Z,19.20
2018-08-18T19:51:06.813Z,19.20
2018-08-18T19:53:36.029Z,19.10
2018-08-18T19:56:08.397Z,19.00
2018-08-18T19:58:36.928Z,18.90
2018-08-18T20:01:05.823Z,18.80
2018-08-18T20:03:34.342Z,18.80
2018-08-18T20:06:07.095Z,18.80
2018-08-18T20:08:35.568Z,18.80
2018-08-18T20:11:04.065Z,18.70
2018-08-18T20:13:33.022Z,18.60
2018-08-18T20:16:03.277Z,18.60
2018-08-18T20:18:33.583Z,18.60
2018-08-18T20:21:02.001Z,18.50
2018-08-18T20:23:30.475Z,18.50
2018-08-18T20:25:59.209Z,18.50
2018-08-18T20:28:27.685Z,18.40
2018-08-18T20:30:57.092Z,18.30
2018-08-18T20:33:25.548Z,18.30
2018-08-18T20:35:54.077Z,18.30
2018-08-18T20:38:22.640Z,18.20
2018-08-18T20:40:51.196Z,18.20
2018-08-18T20:43:19.599Z,18.20
2018-08-18T20:45:49.795Z,18.10
2018-08-18T20:48:20.350Z,18.00
2018-08-18T20:50:49.212Z,18.00
2018-08-18T20:53:18.117Z,17.90
2018-08-18T20:56:02.764Z,17.80
2018-08-18T20:58:33.608Z,17.80
2018-08-18T21:01:02.642Z,17.80
2018-08-18T21:03:45.204Z,17.80
2018-08-18T21:06:14.719Z,17.60
2018-08-18T21:08:43.138Z,17.60
2018-08-18T21:11:11.738Z,17.60
2018-08-18T21:13:40.452Z,17.60
2018-08-18T21:16:09.489Z,17.60
2018-08-18T21:18:37.942Z,17.50
2018-08-18T21:21:32.771Z,17.40
2018-08-18T21:24:01.215Z,17.40
2018-08-18T21:26:29.796Z,17.30
2018-08-18T21:28:58.708Z,17.20
2018-08-18T21:31:37.535Z,17.10
2018-08-18T21:34:07.241Z,17.10
2018-08-18T21:36:36.016Z,17.10
2018-08-18T21:39:07.825Z,17.10
2018-08-18T21:41:36.988Z,17.10
2018-08-18T21:44:07.222Z,17.00
2018-08-18T21:46:35.802Z,16.90
2018-08-18T21:49:05.024Z,16.90
2018-08-18T21:51:33.551Z,16.80
2018-08-18T21:54:02.644Z,16.80
2018-08-18T21:56:37.107Z,16.80
2018-08-18T21:59:07.424Z,16.80
2018-08-18T22:01:36.202Z,16.70
2018-08-18T22:04:05.225Z,16.70
2018-08-18T22:06:33.705Z,16.60
2018-08-18T22:09:18.119Z,16.60
2018-08-18T22:11:47.014Z,16.50
2018-08-18T22:14:16.446Z,16.50
2018-08-18T22:17:03.592Z,16.40
2018-08-18T22:19:32.169Z,16.40
2018-08-18T22:22:00.620Z,16.40
2018-08-18T22:24:29.083Z,16.30
2018-08-18T22:26:57.660Z,16.30
2018-08-18T22:29:26.767Z,16.30
2018-08-18T22:31:55.261Z,16.20
2018-08-18T22:34:23.764Z,16.20
2018-08-18T22:36:57.406Z,16.10
2018-08-18T22:39:25.946Z,16.10
2018-08-18T22:41:54.712Z,16.10
2018-08-18T22:44:23.231Z,16.00
2018-08-18T22:46:51.778Z,16.00
2018-08-18T22:49:20.272Z,16.00
2018-08-18T22:51:48.716Z,15.90
2018-08-18T22:54:17.176Z,15.90
2018-08-18T22:56:49.941Z,15.80
2018-08-18T22:59:18.489Z,15.80
2018-08-18T23:01:47.040Z,15.80
2018-08-18T23:04:28.353Z,15.70
2018-08-18T23:06:57.503Z,15.70
2018-08-18T23:09:26.340Z,15.60
2018-08-18T23:11:56.460Z,15.60
2018-08-18T23:14:25.021Z,15.50
2018-08-18T23:16:53.501Z,15.50
2018-08-18T23:19:22.044Z,15.50
2018-08-18T23:21:50.665Z,15.50
2018-08-18T23:24:33.080Z,15.40
2018-08-18T23:27:02.233Z,15.40
2018-08-18T23:29:30.860Z,15.30
2018-08-18T23:31:59.967Z,15.30
2018-08-18T23:34:28.468Z,15.30
2018-08-18T23:36:57.032Z,15.20
2018-08-18T23:39:25.537Z,15.20
2018-08-18T23:42:05.608Z,15.20
2018-08-18T23:44:34.127Z,15.20
2018-08-18T23:47:02.605Z,15.10
2018-08-18T23:49:31.081Z,15.10
2018-08-18T23:51:59.617Z,15.00
2018-08-18T23:54:28.149Z,15.00
2018-08-18T23:56:56.649Z,14.90
2018-08-18T23:59:25.152Z,14.90
